sensor_id;sensor_type;location;lat;lon;timestamp;P1;P2;P0
73828;PMS7003;62176;48.450;-4.466;2022-07-23T00:00:47;9.25;9.00;7.25
73828;PMS7003;62176;48.450;-4.466;2022-07-23T00:03:13;9.50;9.00;8.00
73828;PMS7003;62176;48.450;-4.466;2022-07-23T00:05:38;11.25;9.75;8.00
73828;PMS7003;62176;48.450;-4.466;2022-07-23T00:08:05;11.00;10.00;8.00
73828;PMS7003;62176;48.450;-4.466;2022-07-23T00:10:31;14.75;12.75;9.25
73828;PMS7003;62176;48.450;-4.466;2022-07-23T00:12:57;13.00;11.00;7.75
73828;PMS7003;62176;48.450;-4.466;2022-07-23T00:15:22;12.75;9.75;7.50
73828;PMS7003;62176;48.450;-4.466;2022-07-23T00:17:48;12.00;12.00;8.75
73828;PMS7003;62176;48.450;-4.466;2022-07-23T00:20:14;8.25;8.25;7.00
73828;PMS7003;62176;48.450;-4.466;2022-07-23T00:22:49;9.25;9.25;7.75
73828;PMS7003;62176;48.450;-4.466;2022-07-23T00:25:16;12.00;10.00;8.75
73828;PMS7003;62176;48.450;-4.466;2022-07-23T00:27:41;10.75;10.00;7.00
73828;PMS7003;62176;48.450;-4.466;2022-07-23T00:30:07;9.75;8.50;6.00
73828;PMS7003;62176;48.450;-4.466;2022-07-23T00:32:44;8.75;8.75;7.50
73828;PMS7003;62176;48.450;-4.466;2022-07-23T00:35:13;8.50;8.50;6.75
73828;PMS7003;62176;48.450;-4.466;2022-07-23T00:37:39;11.00;9.75;7.50
73828;PMS7003;62176;48.450;-4.466;2022-07-23T00:40:05;9.00;9.00;7.50
73828;PMS7003;62176;48.450;-4.466;2022-07-23T00:42:31;12.50;12.00;8.50
73828;PMS7003;62176;48.450;-4.466;2022-07-23T00:44:57;11.00;11.00;8.00
73828;PMS7003;62176;48.450;-4.466;2022-07-23T00:47:23;8.00;8.00;6.25
73828;PMS7003;62176;48.450;-4.466;2022-07-23T00:49:48;11.25;10.00;8.25
73828;PMS7003;62176;48.450;-4.466;2022-07-23T00:52:14;8.25;8.00;7.00
73828;PMS7003;62176;48.450;-4.466;2022-07-23T00:54:39;9.75;9.75;7.25
73828;PMS7003;62176;48.450;-4.466;2022-07-23T00:57:05;11.50;9.50;8.00
73828;PMS7003;62176;48.450;-4.466;2022-07-23T00:59:30;9.25;9.25;7.50
73828;PMS7003;62176;48.450;-4.466;2022-07-23T01:01:56;11.00;9.75;8.75
73828;PMS7003;62176;48.450;-4.466;2022-07-23T01:04:21;10.00;8.50;7.00
73828;PMS7003;62176;48.450;-4.466;2022-07-23T01:06:47;9.50;9.50;7.00
73828;PMS7003;62176;48.450;-4.466;2022-07-23T01:09:12;11.25;9.50;8.00
73828;PMS7003;62176;48.450;-4.466;2022-07-23T01:11:38;9.75;9.75;7.00
73828;PMS7003;62176;48.450;-4.466;2022-07-23T01:14:14;12.00;10.25;8.00
73828;PMS7003;62176;48.450;-4.466;2022-07-23T01:16:41;8.75;7.00;5.00
73828;PMS7003;62176;48.450;-4.466;2022-07-23T01:19:09;10.50;7.25;6.25
73828;PMS7003;62176;48.450;-4.466;2022-07-23T01:21:36;9.75;9.50;6.75
73828;PMS7003;62176;48.450;-4.466;2022-07-23T01:24:03;9.00;7.25;5.50
73828;PMS7003;62176;48.450;-4.466;2022-07-23T01:26:29;7.25;7.00;6.00
73828;PMS7003;62176;48.450;-4.466;2022-07-23T01:28:54;9.50;8.00;7.00
73828;PMS7003;62176;48.450;-4.466;2022-07-23T01:31:20;8.25;6.00;5.00
73828;PMS7003;62176;48.450;-4.466;2022-07-23T01:33:45;8.50;7.00;5.75
73828;PMS7003;62176;48.450;-4.466;2022-07-23T01:36:11;8.00;8.00;6.25
73828;PMS7003;62176;48.450;-4.466;2022-07-23T01:38:36;9.50;6.75;5.25
73828;PMS7003;62176;48.450;-4.466;2022-07-23T01:41:02;8.50;7.75;6.00
73828;PMS7003;62176;48.450;-4.466;2022-07-23T01:43:27;7.25;7.25;6.00
73828;PMS7003;62176;48.450;-4.466;2022-07-23T01:45:53;6.00;6.00;5.00
73828;PMS7003;62176;48.450;-4.466;2022-07-23T01:48:18;7.75;7.75;6.00
73828;PMS7003;62176;48.450;-4.466;2022-07-23T01:50:45;7.00;7.00;5.50
73828;PMS7003;62176;48.450;-4.466;2022-07-23T01:53:11;6.00;6.00;5.00
73828;PMS7003;62176;48.450;-4.466;2022-07-23T01:55:37;9.50;8.50;6.75
73828;PMS7003;62176;48.450;-4.466;2022-07-23T01:58:02;9.75;8.25;7.00
73828;PMS7003;62176;48.450;-4.466;2022-07-23T02:00:28;6.50;6.50;5.00
73828;PMS7003;62176;48.450;-4.466;2022-07-23T02:02:53;10.00;10.00;7.00
73828;PMS7003;62176;48.450;-4.466;2022-07-23T02:05:19;9.00;7.00;6.00
73828;PMS7003;62176;48.450;-4.466;2022-07-23T02:07:44;8.50;7.00;6.00
73828;PMS7003;62176;48.450;-4.466;2022-07-23T02:10:10;10.00;8.00;7.00
73828;PMS7003;62176;48.450;-4.466;2022-07-23T02:12:35;10.25;7.25;6.75
73828;PMS7003;62176;48.450;-4.466;2022-07-23T02:15:01;9.00;8.00;6.50
73828;PMS7003;62176;48.450;-4.466;2022-07-23T02:17:26;8.00;8.00;6.25
73828;PMS7003;62176;48.450;-4.466;2022-07-23T02:19:52;8.25;8.25;6.50
73828;PMS7003;62176;48.450;-4.466;2022-07-23T02:22:17;9.00;7.00;5.75
73828;PMS7003;62176;48.450;-4.466;2022-07-23T02:24:43;7.50;7.50;6.00
73828;PMS7003;62176;48.450;-4.466;2022-07-23T02:27:08;10.75;9.00;7.75
73828;PMS7003;62176;48.450;-4.466;2022-07-23T02:29:33;11.25;10.00;7.50
73828;PMS7003;62176;48.450;-4.466;2022-07-23T02:31:59;11.00;9.25;7.75
73828;PMS7003;62176;48.450;-4.466;2022-07-23T02:34:24;10.75;7.25;6.25
73828;PMS7003;62176;48.450;-4.466;2022-07-23T02:36:49;8.00;8.00;6.75
73828;PMS7003;62176;48.450;-4.466;2022-07-23T02:39:15;13.50;11.25;8.25
73828;PMS7003;62176;48.450;-4.466;2022-07-23T02:41:40;11.00;10.50;8.50
73828;PMS7003;62176;48.450;-4.466;2022-07-23T02:44:06;9.75;8.25;5.25
73828;PMS7003;62176;48.450;-4.466;2022-07-23T02:46:31;11.00;10.75;8.00
73828;PMS7003;62176;48.450;-4.466;2022-07-23T02:48:57;8.75;8.50;8.00
73828;PMS7003;62176;48.450;-4.466;2022-07-23T02:51:22;12.00;9.50;6.00
73828;PMS7003;62176;48.450;-4.466;2022-07-23T02:53:47;12.25;9.75;6.75
73828;PMS7003;62176;48.450;-4.466;2022-07-23T02:56:13;10.50;9.50;7.50
73828;PMS7003;62176;48.450;-4.466;2022-07-23T02:58:38;9.50;9.50;7.00
73828;PMS7003;62176;48.450;-4.466;2022-07-23T03:01:04;11.50;9.50;7.00
73828;PMS7003;62176;48.450;-4.466;2022-07-23T03:03:29;9.75;9.75;8.00
73828;PMS7003;62176;48.450;-4.466;2022-07-23T03:05:54;9.00;9.00;7.25
73828;PMS7003;62176;48.450;-4.466;2022-07-23T03:08:20;11.50;10.00;8.00
73828;PMS7003;62176;48.450;-4.466;2022-07-23T03:10:45;9.00;9.00;8.00
73828;PMS7003;62176;48.450;-4.466;2022-07-23T03:13:11;9.00;9.00;7.75
73828;PMS7003;62176;48.450;-4.466;2022-07-23T03:15:36;7.00;7.00;5.00
73828;PMS7003;62176;48.450;-4.466;2022-07-23T03:18:02;11.00;9.00;7.50
73828;PMS7003;62176;48.450;-4.466;2022-07-23T03:20:27;9.00;9.00;6.50
73828;PMS7003;62176;48.450;-4.466;2022-07-23T03:22:52;6.50;6.00;5.50
73828;PMS7003;62176;48.450;-4.466;2022-07-23T03:25:18;8.75;8.25;7.00
73828;PMS7003;62176;48.450;-4.466;2022-07-23T03:27:43;9.00;7.00;6.00
73828;PMS7003;62176;48.450;-4.466;2022-07-23T03:30:10;7.00;7.00;6.00
73828;PMS7003;62176;48.450;-4.466;2022-07-23T03:32:36;5.25;5.25;4.25
73828;PMS7003;62176;48.450;-4.466;2022-07-23T03:35:02;9.25;7.00;6.00
73828;PMS7003;62176;48.450;-4.466;2022-07-23T03:37:28;8.50;6.00;5.00
73828;PMS7003;62176;48.450;-4.466;2022-07-23T03:39:53;7.50;5.75;3.50
73828;PMS7003;62176;48.450;-4.466;2022-07-23T03:42:19;5.75;5.75;5.00
73828;PMS7003;62176;48.450;-4.466;2022-07-23T03:44:44;5.50;5.50;4.75
73828;PMS7003;62176;48.450;-4.466;2022-07-23T03:47:10;5.50;5.50;4.75
73828;PMS7003;62176;48.450;-4.466;2022-07-23T03:49:35;11.25;7.00;5.00
73828;PMS7003;62176;48.450;-4.466;2022-07-23T03:52:01;5.00;5.00;4.00
73828;PMS7003;62176;48.450;-4.466;2022-07-23T03:54:26;7.00;6.00;4.25
73828;PMS7003;62176;48.450;-4.466;2022-07-23T03:56:52;7.25;5.00;4.00
73828;PMS7003;62176;48.450;-4.466;2022-07-23T03:59:17;5.00;5.00;4.00
73828;PMS7003;62176;48.450;-4.466;2022-07-23T04:01:43;5.50;4.25;3.50
73828;PMS7003;62176;48.450;-4.466;2022-07-23T04:04:08;4.50;4.50;3.00
73828;PMS7003;62176;48.450;-4.466;2022-07-23T04:06:34;6.25;4.00;4.00
73828;PMS7003;62176;48.450;-4.466;2022-07-23T04:09:00;6.00;4.50;4.00
73828;PMS7003;62176;48.450;-4.466;2022-07-23T04:11:26;5.00;5.00;4.25
73828;PMS7003;62176;48.450;-4.466;2022-07-23T04:13:51;5.00;5.00;3.75
73828;PMS7003;62176;48.450;-4.466;2022-07-23T04:16:16;6.00;6.00;5.00
73828;PMS7003;62176;48.450;-4.466;2022-07-23T04:18:42;4.00;4.00;3.00
73828;PMS7003;62176;48.450;-4.466;2022-07-23T04:21:07;5.50;5.50;4.00
73828;PMS7003;62176;48.450;-4.466;2022-07-23T04:23:33;5.25;5.00;4.00
73828;PMS7003;62176;48.450;-4.466;2022-07-23T04:25:58;4.25;4.25;4.00
73828;PMS7003;62176;48.450;-4.466;2022-07-23T04:28:23;7.00;5.75;5.00
73828;PMS7003;62176;48.450;-4.466;2022-07-23T04:30:49;5.50;4.75;4.50
73828;PMS7003;62176;48.450;-4.466;2022-07-23T04:33:15;8.00;6.00;4.25
73828;PMS7003;62176;48.450;-4.466;2022-07-23T04:35:40;6.00;5.00;4.50
73828;PMS7003;62176;48.450;-4.466;2022-07-23T04:38:05;6.50;6.00;5.00
73828;PMS7003;62176;48.450;-4.466;2022-07-23T04:40:31;5.00;5.00;4.00
73828;PMS7003;62176;48.450;-4.466;2022-07-23T04:42:57;6.25;6.25;5.00
73828;PMS7003;62176;48.450;-4.466;2022-07-23T04:45:22;5.50;5.25;4.00
73828;PMS7003;62176;48.450;-4.466;2022-07-23T04:47:51;6.75;6.75;5.00
73828;PMS7003;62176;48.450;-4.466;2022-07-23T04:50:16;4.00;4.00;3.00
73828;PMS7003;62176;48.450;-4.466;2022-07-23T04:52:46;8.00;6.25;5.25
73828;PMS7003;62176;48.450;-4.466;2022-07-23T04:55:12;6.75;5.00;4.00
73828;PMS7003;62176;48.450;-4.466;2022-07-23T04:57:37;7.50;5.75;4.00
73828;PMS7003;62176;48.450;-4.466;2022-07-23T05:00:03;5.75;5.00;4.25
73828;PMS7003;62176;48.450;-4.466;2022-07-23T05:02:29;6.00;5.00;4.00
73828;PMS7003;62176;48.450;-4.466;2022-07-23T05:04:54;4.75;4.75;3.75
73828;PMS7003;62176;48.450;-4.466;2022-07-23T05:07:20;5.75;4.00;3.00
73828;PMS7003;62176;48.450;-4.466;2022-07-23T05:09:45;6.00;6.00;4.50
73828;PMS7003;62176;48.450;-4.466;2022-07-23T05:12:11;7.00;4.00;3.75
73828;PMS7003;62176;48.450;-4.466;2022-07-23T05:14:37;5.00;5.00;4.25
73828;PMS7003;62176;48.450;-4.466;2022-07-23T05:17:02;5.25;5.25;4.00
73828;PMS7003;62176;48.450;-4.466;2022-07-23T05:19:27;4.00;4.00;4.00
73828;PMS7003;62176;48.450;-4.466;2022-07-23T05:21:53;3.00;3.00;3.00
73828;PMS7003;62176;48.450;-4.466;2022-07-23T05:24:18;4.00;4.00;3.00
73828;PMS7003;62176;48.450;-4.466;2022-07-23T05:26:53;4.25;4.25;3.25
73828;PMS7003;62176;48.450;-4.466;2022-07-23T05:29:18;4.75;4.75;3.25
73828;PMS7003;62176;48.450;-4.466;2022-07-23T05:31:44;4.00;4.00;3.50
73828;PMS7003;62176;48.450;-4.466;2022-07-23T05:34:09;4.75;4.00;3.00
73828;PMS7003;62176;48.450;-4.466;2022-07-23T05:36:35;3.75;3.75;2.75
73828;PMS7003;62176;48.450;-4.466;2022-07-23T05:39:00;2.50;2.50;2.00
73828;PMS7003;62176;48.450;-4.466;2022-07-23T05:41:26;5.25;4.50;4.00
73828;PMS7003;62176;48.450;-4.466;2022-07-23T05:43:52;5.00;5.00;4.00
73828;PMS7003;62176;48.450;-4.466;2022-07-23T05:46:17;3.75;3.75;3.00
73828;PMS7003;62176;48.450;-4.466;2022-07-23T05:48:43;6.75;5.25;3.25
73828;PMS7003;62176;48.450;-4.466;2022-07-23T05:51:11;5.25;4.00;3.25
73828;PMS7003;62176;48.450;-4.466;2022-07-23T05:53:36;4.25;4.25;3.75
73828;PMS7003;62176;48.450;-4.466;2022-07-23T05:56:03;4.75;3.50;3.25
73828;PMS7003;62176;48.450;-4.466;2022-07-23T05:58:28;5.00;4.50;4.00
73828;PMS7003;62176;48.450;-4.466;2022-07-23T06:00:54;5.75;5.00;3.50
73828;PMS7003;62176;48.450;-4.466;2022-07-23T06:03:19;3.00;3.00;3.00
73828;PMS7003;62176;48.450;-4.466;2022-07-23T06:05:45;5.50;4.75;4.00
73828;PMS7003;62176;48.450;-4.466;2022-07-23T06:08:11;5.00;5.00;4.00
73828;PMS7003;62176;48.450;-4.466;2022-07-23T06:10:36;5.00;4.00;3.00
73828;PMS7003;62176;48.450;-4.466;2022-07-23T06:13:01;6.75;4.75;3.25
73828;PMS7003;62176;48.450;-4.466;2022-07-23T06:15:27;6.00;6.00;4.00
73828;PMS7003;62176;48.450;-4.466;2022-07-23T06:17:53;5.50;5.50;3.75
73828;PMS7003;62176;48.450;-4.466;2022-07-23T06:20:18;5.00;5.00;3.75
73828;PMS7003;62176;48.450;-4.466;2022-07-23T06:22:44;3.50;3.50;3.00
73828;PMS7003;62176;48.450;-4.466;2022-07-23T06:25:09;4.00;4.00;4.00
73828;PMS7003;62176;48.450;-4.466;2022-07-23T06:27:35;6.00;5.00;4.00
73828;PMS7003;62176;48.450;-4.466;2022-07-23T06:30:00;3.75;3.75;3.00
73828;PMS7003;62176;48.450;-4.466;2022-07-23T06:32:26;4.00;4.00;3.00
73828;PMS7003;62176;48.450;-4.466;2022-07-23T06:34:51;5.50;4.50;3.00
73828;PMS7003;62176;48.450;-4.466;2022-07-23T06:37:17;6.00;5.00;3.00
73828;PMS7003;62176;48.450;-4.466;2022-07-23T06:39:42;6.00;4.25;3.25
73828;PMS7003;62176;48.450;-4.466;2022-07-23T06:42:07;3.50;3.50;2.50
73828;PMS7003;62176;48.450;-4.466;2022-07-23T06:44:33;4.00;4.00;3.00
73828;PMS7003;62176;48.450;-4.466;2022-07-23T06:46:58;4.75;3.75;2.25
73828;PMS7003;62176;48.450;-4.466;2022-07-23T06:49:24;4.25;4.25;3.75
73828;PMS7003;62176;48.450;-4.466;2022-07-23T06:51:49;6.50;3.75;3.00
73828;PMS7003;62176;48.450;-4.466;2022-07-23T06:54:15;4.50;4.00;4.00
73828;PMS7003;62176;48.450;-4.466;2022-07-23T06:56:40;4.00;3.00;2.00
73828;PMS7003;62176;48.450;-4.466;2022-07-23T06:59:06;5.00;5.00;3.50
73828;PMS7003;62176;48.450;-4.466;2022-07-23T07:01:31;4.00;4.00;3.25
73828;PMS7003;62176;48.450;-4.466;2022-07-23T07:03:57;5.00;3.00;3.00
73828;PMS7003;62176;48.450;-4.466;2022-07-23T07:06:22;4.00;4.00;3.00
73828;PMS7003;62176;48.450;-4.466;2022-07-23T07:08:48;4.50;3.00;3.00
73828;PMS7003;62176;48.450;-4.466;2022-07-23T07:11:13;4.25;4.25;3.25
73828;PMS7003;62176;48.450;-4.466;2022-07-23T07:13:39;7.00;4.00;3.00
73828;PMS7003;62176;48.450;-4.466;2022-07-23T07:16:04;5.25;4.50;3.50
73828;PMS7003;62176;48.450;-4.466;2022-07-23T07:18:30;4.25;3.75;3.75
73828;PMS7003;62176;48.450;-4.466;2022-07-23T07:20:56;6.00;5.00;4.75
73828;PMS7003;62176;48.450;-4.466;2022-07-23T07:23:22;7.00;5.25;4.25
73828;PMS7003;62176;48.450;-4.466;2022-07-23T07:25:48;4.00;3.50;3.25
73828;PMS7003;62176;48.450;-4.466;2022-07-23T07:28:13;5.75;3.25;3.00
73828;PMS7003;62176;48.450;-4.466;2022-07-23T07:30:39;6.75;5.25;4.00
73828;PMS7003;62176;48.450;-4.466;2022-07-23T07:33:04;5.75;4.00;3.00
73828;PMS7003;62176;48.450;-4.466;2022-07-23T07:35:30;5.50;4.75;3.50
73828;PMS7003;62176;48.450;-4.466;2022-07-23T07:37:57;3.75;3.00;2.25
73828;PMS7003;62176;48.450;-4.466;2022-07-23T07:40:22;4.25;3.25;3.00
73828;PMS7003;62176;48.450;-4.466;2022-07-23T07:42:49;4.00;4.00;3.25
73828;PMS7003;62176;48.450;-4.466;2022-07-23T07:45:17;6.75;5.50;4.00
73828;PMS7003;62176;48.450;-4.466;2022-07-23T07:47:45;4.75;3.00;2.25
73828;PMS7003;62176;48.450;-4.466;2022-07-23T07:50:11;3.25;3.25;3.00
73828;PMS7003;62176;48.450;-4.466;2022-07-23T07:52:36;3.00;3.00;2.25
73828;PMS7003;62176;48.450;-4.466;2022-07-23T07:55:05;3.25;3.25;3.00
73828;PMS7003;62176;48.450;-4.466;2022-07-23T07:57:32;5.50;4.50;3.75
73828;PMS7003;62176;48.450;-4.466;2022-07-23T07:59:58;3.00;3.00;3.00
73828;PMS7003;62176;48.450;-4.466;2022-07-23T08:02:23;5.00;4.00;3.50
73828;PMS7003;62176;48.450;-4.466;2022-07-23T08:04:49;6.00;4.00;3.00
73828;PMS7003;62176;48.450;-4.466;2022-07-23T08:07:15;3.50;3.25;2.50
73828;PMS7003;62176;48.450;-4.466;2022-07-23T08:09:40;6.00;4.00;4.00
73828;PMS7003;62176;48.450;-4.466;2022-07-23T08:12:06;3.75;3.75;2.50
73828;PMS7003;62176;48.450;-4.466;2022-07-23T08:14:32;3.00;3.00;2.00
73828;PMS7003;62176;48.450;-4.466;2022-07-23T08:16:57;4.00;4.00;3.25
73828;PMS7003;62176;48.450;-4.466;2022-07-23T08:19:23;4.50;4.50;3.75
73828;PMS7003;62176;48.450;-4.466;2022-07-23T08:21:48;5.00;5.00;4.00
73828;PMS7003;62176;48.450;-4.466;2022-07-23T08:24:13;3.50;3.50;3.00
73828;PMS7003;62176;48.450;-4.466;2022-07-23T08:26:39;4.75;4.75;4.00
73828;PMS7003;62176;48.450;-4.466;2022-07-23T08:29:04;4.50;3.50;3.00
73828;PMS7003;62176;48.450;-4.466;2022-07-23T08:31:30;3.50;3.50;3.00
73828;PMS7003;62176;48.450;-4.466;2022-07-23T08:33:57;4.00;4.00;3.00
73828;PMS7003;62176;48.450;-4.466;2022-07-23T08:36:23;4.00;4.00;2.75
73828;PMS7003;62176;48.450;-4.466;2022-07-23T08:38:49;2.75;2.75;2.50
73828;PMS7003;62176;48.450;-4.466;2022-07-23T08:41:14;3.00;2.25;1.25
73828;PMS7003;62176;48.450;-4.466;2022-07-23T08:43:41;4.25;4.25;3.25
73828;PMS7003;62176;48.450;-4.466;2022-07-23T08:46:07;3.75;3.75;2.75
73828;PMS7003;62176;48.450;-4.466;2022-07-23T08:48:34;4.00;2.25;1.75
73828;PMS7003;62176;48.450;-4.466;2022-07-23T08:51:03;3.00;3.00;2.50
73828;PMS7003;62176;48.450;-4.466;2022-07-23T08:53:29;4.00;3.50;3.00
73828;PMS7003;62176;48.450;-4.466;2022-07-23T08:55:58;3.00;3.00;2.75
73828;PMS7003;62176;48.450;-4.466;2022-07-23T08:58:26;1.50;1.50;1.50
73828;PMS7003;62176;48.450;-4.466;2022-07-23T09:00:52;3.75;3.50;3.25
73828;PMS7003;62176;48.450;-4.466;2022-07-23T09:03:21;3.00;3.00;2.50
73828;PMS7003;62176;48.450;-4.466;2022-07-23T09:05:49;4.75;3.25;2.50
73828;PMS7003;62176;48.450;-4.466;2022-07-23T09:08:16;4.75;4.50;3.00
73828;PMS7003;62176;48.450;-4.466;2022-07-23T09:16:08;4.00;2.75;2.50
73828;PMS7003;62176;48.450;-4.466;2022-07-23T09:18:51;1.00;0.75;0.25
73828;PMS7003;62176;48.450;-4.466;2022-07-23T09:21:27;4.00;4.00;2.75
73828;PMS7003;62176;48.450;-4.466;2022-07-23T09:24:07;2.00;2.00;1.50
73828;PMS7003;62176;48.450;-4.466;2022-07-23T09:29:06;2.00;2.00;1.75
73828;PMS7003;62176;48.450;-4.466;2022-07-23T09:31:47;2.75;2.75;2.50
73828;PMS7003;62176;48.450;-4.466;2022-07-23T09:34:14;3.25;3.25;2.25
73828;PMS7003;62176;48.450;-4.466;2022-07-23T09:36:42;2.50;2.50;2.00
73828;PMS7003;62176;48.450;-4.466;2022-07-23T09:39:08;4.00;3.00;2.25
73828;PMS7003;62176;48.450;-4.466;2022-07-23T09:44:15;3.00;3.00;2.00
73828;PMS7003;62176;48.450;-4.466;2022-07-23T09:46:42;4.00;3.00;2.50
73828;PMS7003;62176;48.450;-4.466;2022-07-23T09:49:19;3.00;3.00;2.00
73828;PMS7003;62176;48.450;-4.466;2022-07-23T09:51:47;2.00;2.00;1.75
73828;PMS7003;62176;48.450;-4.466;2022-07-23T09:57:07;2.25;2.25;1.75
73828;PMS7003;62176;48.450;-4.466;2022-07-23T09:59:40;4.00;3.00;2.00
73828;PMS7003;62176;48.450;-4.466;2022-07-23T10:02:07;3.75;3.75;3.00
73828;PMS7003;62176;48.450;-4.466;2022-07-23T10:04:34;3.00;3.00;2.00
73828;PMS7003;62176;48.450;-4.466;2022-07-23T10:07:01;2.50;1.75;1.75
73828;PMS7003;62176;48.450;-4.466;2022-07-23T10:09:31;3.50;2.50;2.00
73828;PMS7003;62176;48.450;-4.466;2022-07-23T10:12:02;4.00;3.50;3.00
73828;PMS7003;62176;48.450;-4.466;2022-07-23T10:14:41;4.00;2.00;1.75
73828;PMS7003;62176;48.450;-4.466;2022-07-23T10:17:07;3.25;2.75;2.50
73828;PMS7003;62176;48.450;-4.466;2022-07-23T10:19:33;2.50;2.25;2.00
73828;PMS7003;62176;48.450;-4.466;2022-07-23T10:22:00;3.00;3.00;2.00
73828;PMS7003;62176;48.450;-4.466;2022-07-23T10:35:31;2.00;2.00;2.00
73828;PMS7003;62176;48.450;-4.466;2022-07-23T10:40:54;2.50;2.50;2.00
73828;PMS7003;62176;48.450;-4.466;2022-07-23T10:43:21;1.00;1.00;0.50
73828;PMS7003;62176;48.450;-4.466;2022-07-23T10:45:47;2.00;2.00;1.75
73828;PMS7003;62176;48.450;-4.466;2022-07-23T10:48:14;3.25;1.50;1.25
73828;PMS7003;62176;48.450;-4.466;2022-07-23T10:50:41;1.00;1.00;1.00
73828;PMS7003;62176;48.450;-4.466;2022-07-23T10:53:17;2.00;2.00;2.00
73828;PMS7003;62176;48.450;-4.466;2022-07-23T10:58:20;3.00;1.50;1.50
73828;PMS7003;62176;48.450;-4.466;2022-07-23T11:00:47;2.00;2.00;2.00
73828;PMS7003;62176;48.450;-4.466;2022-07-23T11:06:20;3.00;2.25;2.00
73828;PMS7003;62176;48.450;-4.466;2022-07-23T11:08:45;2.25;2.25;1.50
73828;PMS7003;62176;48.450;-4.466;2022-07-23T11:11:11;1.00;1.00;1.00
73828;PMS7003;62176;48.450;-4.466;2022-07-23T11:13:39;2.00;2.00;2.00
73828;PMS7003;62176;48.450;-4.466;2022-07-23T11:19:03;2.00;1.00;1.00
73828;PMS7003;62176;48.450;-4.466;2022-07-23T11:24:06;1.75;1.75;1.00
73828;PMS7003;62176;48.450;-4.466;2022-07-23T11:34:52;2.00;2.00;1.00
73828;PMS7003;62176;48.450;-4.466;2022-07-23T11:37:28;1.00;1.00;1.00
73828;PMS7003;62176;48.450;-4.466;2022-07-23T11:39:59;1.25;1.25;1.25
73828;PMS7003;62176;48.450;-4.466;2022-07-23T11:42:26;2.00;2.00;1.00
73828;PMS7003;62176;48.450;-4.466;2022-07-23T11:44:52;4.00;2.00;1.50
73828;PMS7003;62176;48.450;-4.466;2022-07-23T11:47:22;1.50;1.50;1.50
73828;PMS7003;62176;48.450;-4.466;2022-07-23T11:49:53;1.25;1.25;1.25
73828;PMS7003;62176;48.450;-4.466;2022-07-23T11:52:20;1.75;1.75;1.25
73828;PMS7003;62176;48.450;-4.466;2022-07-23T11:54:50;2.50;2.50;1.75
73828;PMS7003;62176;48.450;-4.466;2022-07-23T11:57:19;2.00;2.00;2.00
73828;PMS7003;62176;48.450;-4.466;2022-07-23T11:59:46;3.00;2.00;2.00
73828;PMS7003;62176;48.450;-4.466;2022-07-23T12:02:14;4.50;2.75;2.75
73828;PMS7003;62176;48.450;-4.466;2022-07-23T12:04:43;1.75;1.75;1.75
73828;PMS7003;62176;48.450;-4.466;2022-07-23T12:10:01;1.50;1.50;1.00
73828;PMS7003;62176;48.450;-4.466;2022-07-23T12:15:18;1.75;1.75;1.25
73828;PMS7003;62176;48.450;-4.466;2022-07-23T12:17:46;2.00;1.75;1.25
73828;PMS7003;62176;48.450;-4.466;2022-07-23T12:20:14;3.50;2.25;1.50
73828;PMS7003;62176;48.450;-4.466;2022-07-23T12:22:42;1.00;1.00;1.00
73828;PMS7003;62176;48.450;-4.466;2022-07-23T12:25:16;2.00;2.00;1.75
73828;PMS7003;62176;48.450;-4.466;2022-07-23T12:27:43;1.25;1.25;1.00
73828;PMS7003;62176;48.450;-4.466;2022-07-23T12:30:18;3.75;2.00;1.25
73828;PMS7003;62176;48.450;-4.466;2022-07-23T12:32:52;1.75;1.75;1.50
73828;PMS7003;62176;48.450;-4.466;2022-07-23T12:35:20;2.00;2.00;2.00
73828;PMS7003;62176;48.450;-4.466;2022-07-23T12:37:47;2.00;2.00;2.00
73828;PMS7003;62176;48.450;-4.466;2022-07-23T12:40:24;2.00;2.00;1.00
73828;PMS7003;62176;48.450;-4.466;2022-07-23T12:42:53;2.75;1.00;1.00
73828;PMS7003;62176;48.450;-4.466;2022-07-23T12:45:52;1.00;1.00;1.00
73828;PMS7003;62176;48.450;-4.466;2022-07-23T12:50:50;2.50;2.50;2.00
73828;PMS7003;62176;48.450;-4.466;2022-07-23T12:53:17;3.25;2.00;1.25
73828;PMS7003;62176;48.450;-4.466;2022-07-23T12:55:44;2.00;2.00;1.75
73828;PMS7003;62176;48.450;-4.466;2022-07-23T13:01:00;2.00;2.00;2.00
73828;PMS7003;62176;48.450;-4.466;2022-07-23T13:03:29;2.00;2.00;1.50
73828;PMS7003;62176;48.450;-4.466;2022-07-23T13:05:57;2.75;2.75;2.00
73828;PMS7003;62176;48.450;-4.466;2022-07-23T13:08:24;3.00;3.00;2.50
73828;PMS7003;62176;48.450;-4.466;2022-07-23T13:10:52;3.00;3.00;2.00
73828;PMS7003;62176;48.450;-4.466;2022-07-23T13:13:22;0.25;0.00;0.00
73828;PMS7003;62176;48.450;-4.466;2022-07-23T13:15:49;2.25;2.25;2.25
73828;PMS7003;62176;48.450;-4.466;2022-07-23T13:18:14;2.00;2.00;2.00
73828;PMS7003;62176;48.450;-4.466;2022-07-23T13:20:41;2.00;2.00;2.00
73828;PMS7003;62176;48.450;-4.466;2022-07-23T13:23:07;0.00;0.00;0.00
73828;PMS7003;62176;48.450;-4.466;2022-07-23T13:25:33;2.00;2.00;2.00
73828;PMS7003;62176;48.450;-4.466;2022-07-23T13:27:58;3.50;2.50;2.00
73828;PMS7003;62176;48.450;-4.466;2022-07-23T13:30:24;3.75;2.25;2.00
73828;PMS7003;62176;48.450;-4.466;2022-07-23T13:32:49;2.50;2.00;1.75
73828;PMS7003;62176;48.450;-4.466;2022-07-23T13:35:15;3.00;3.00;2.25
73828;PMS7003;62176;48.450;-4.466;2022-07-23T13:37:40;2.00;2.00;1.00
73828;PMS7003;62176;48.450;-4.466;2022-07-23T13:40:06;4.00;2.75;2.00
73828;PMS7003;62176;48.450;-4.466;2022-07-23T13:42:33;3.50;2.00;1.00
73828;PMS7003;62176;48.450;-4.466;2022-07-23T13:44:59;1.00;1.00;1.00
73828;PMS7003;62176;48.450;-4.466;2022-07-23T13:47:24;4.00;2.00;2.00
73828;PMS7003;62176;48.450;-4.466;2022-07-23T13:49:50;1.00;1.00;1.00
73828;PMS7003;62176;48.450;-4.466;2022-07-23T13:52:15;1.50;1.50;1.50
73828;PMS7003;62176;48.450;-4.466;2022-07-23T13:54:41;0.00;0.00;0.00
73828;PMS7003;62176;48.450;-4.466;2022-07-23T13:57:06;1.50;1.50;1.50
73828;PMS7003;62176;48.450;-4.466;2022-07-23T13:59:34;2.00;2.00;2.00
73828;PMS7003;62176;48.450;-4.466;2022-07-23T14:01:59;2.25;1.75;1.75
73828;PMS7003;62176;48.450;-4.466;2022-07-23T14:04:26;2.00;2.00;1.00
73828;PMS7003;62176;48.450;-4.466;2022-07-23T14:06:51;3.00;2.00;1.75
73828;PMS7003;62176;48.450;-4.466;2022-07-23T14:09:17;2.00;2.00;2.00
73828;PMS7003;62176;48.450;-4.466;2022-07-23T14:11:42;1.75;1.50;1.50
73828;PMS7003;62176;48.450;-4.466;2022-07-23T14:14:07;2.75;2.50;1.75
73828;PMS7003;62176;48.450;-4.466;2022-07-23T14:16:33;4.00;2.75;2.00
73828;PMS7003;62176;48.450;-4.466;2022-07-23T14:18:58;2.00;2.00;1.50
73828;PMS7003;62176;48.450;-4.466;2022-07-23T14:21:24;4.00;2.25;2.00
73828;PMS7003;62176;48.450;-4.466;2022-07-23T14:23:49;2.00;2.00;2.00
73828;PMS7003;62176;48.450;-4.466;2022-07-23T14:26:15;2.50;2.00;1.00
73828;PMS7003;62176;48.450;-4.466;2022-07-23T14:28:40;2.25;2.25;2.00
73828;PMS7003;62176;48.450;-4.466;2022-07-23T14:31:06;4.00;2.25;2.00
73828;PMS7003;62176;48.450;-4.466;2022-07-23T14:33:31;2.75;2.00;2.00
73828;PMS7003;62176;48.450;-4.466;2022-07-23T14:35:57;1.25;1.25;1.00
73828;PMS7003;62176;48.450;-4.466;2022-07-23T14:38:24;2.00;2.00;2.00
73828;PMS7003;62176;48.450;-4.466;2022-07-23T14:40:49;1.25;1.25;1.00
73828;PMS7003;62176;48.450;-4.466;2022-07-23T14:43:14;3.50;2.25;2.00
73828;PMS7003;62176;48.450;-4.466;2022-07-23T14:45:40;4.00;3.00;2.00
73828;PMS7003;62176;48.450;-4.466;2022-07-23T14:48:05;3.00;2.00;2.00
73828;PMS7003;62176;48.450;-4.466;2022-07-23T14:50:31;4.00;3.00;2.00
73828;PMS7003;62176;48.450;-4.466;2022-07-23T14:52:56;4.00;2.25;2.25
73828;PMS7003;62176;48.450;-4.466;2022-07-23T14:55:22;1.00;1.00;0.25
73828;PMS7003;62176;48.450;-4.466;2022-07-23T14:57:47;3.00;3.00;2.00
73828;PMS7003;62176;48.450;-4.466;2022-07-23T15:00:12;1.00;1.00;0.25
73828;PMS7003;62176;48.450;-4.466;2022-07-23T15:02:38;0.75;0.75;0.50